Time;durP1;ratioP1;P1;durP2;ratioP2;P2;SDS_P1;SDS_P2;PMS_P1;PMS_P2;Temp;Humidity;BMP_temperature;BMP_pressure;BME280_temperature;BME280_humidity;BME280_pressure;Samples;Min_cycle;Max_cycle;Signal;HPM_P1;HPM_P2
2023/10/07 00:01:45;;;;;;;5.60;2.20;;;;;;;8.83;79.40;101211.48;106329;1254;76894;-87
2023/10/07 00:04:14;;;;;;;5.80;2.30;;;;;;;8.80;79.73;101208.55;106321;1259;67227;-87
2023/10/07 00:06:45;;;;;;;6.70;2.50;;;;;;;8.74;80.17;101207.57;107010;1253;71528;-86
2023/10/07 00:09:22;;;;;;;5.10;2.10;;;;;;;8.70;80.45;101205.99;107066;1255;61343;-86
2023/10/07 00:11:50;;;;;;;8.60;2.20;;;;;;;8.72;80.45;101209.49;106405;1254;61388;-84
2023/10/07 00:14:18;;;;;;;8.00;2.30;;;;;;;8.72;80.25;101208.02;106289;1254;74657;-84
2023/10/07 00:16:46;;;;;;;5.60;2.20;;;;;;;8.73;80.12;101208.96;106287;1255;67098;-85
2023/10/07 00:19:14;;;;;;;8.50;2.30;;;;;;;8.72;79.85;101211.30;106214;1261;71130;-85
2023/10/07 00:21:52;;;;;;;5.90;2.40;;;;;;;8.68;80.04;101206.83;106197;1260;61314;-84
2023/10/07 00:24:20;;;;;;;4.30;2.30;;;;;;;8.64;80.26;101209.45;106248;1253;61323;-85
2023/10/07 00:26:49;;;;;;;5.40;2.90;;;;;;;8.62;80.57;101205.27;106247;1254;74622;-84
2023/10/07 00:29:21;;;;;;;4.20;2.20;;;;;;;8.56;80.87;101205.55;106690;1254;67410;-84
2023/10/07 00:31:53;;;;;;;9.90;2.60;;;;;;;8.55;81.17;101195.67;106816;1257;71135;-86
2023/10/07 00:34:31;;;;;;;6.80;2.70;;;;;;;8.54;81.32;101189.55;106257;1253;61233;-86
2023/10/07 00:37:00;;;;;;;4.70;2.30;;;;;;;8.55;81.33;101183.30;106423;1258;61425;-86
2023/10/07 00:39:31;;;;;;;6.50;2.20;;;;;;;8.54;81.63;101177.80;106423;1259;74603;-84
2023/10/07 00:41:59;;;;;;;4.10;2.10;;;;;;;8.53;81.86;101176.52;106308;1254;68447;-87
2023/10/07 00:44:32;;;;;;;5.40;2.40;;;;;;;8.54;82.33;101176.38;106087;1254;72957;-87
2023/10/07 00:50:10;;;;;;;5.90;2.20;;;;;;;8.53;83.54;101173.26;106436;1257;61320;-87
2023/10/07 00:52:41;;;;;;;5.30;2.30;;;;;;;8.52;83.94;101169.05;106281;1254;73733;-84
2023/10/07 00:55:16;;;;;;;6.70;2.80;;;;;;;8.52;84.59;101169.80;106148;1254;67810;-87
2023/10/07 00:58:26;;;;;;;4.90;2.30;;;;;;;8.54;85.02;101168.15;106335;1254;72784;-87
2023/10/07 01:00:47;;;;;;;7.20;2.70;;;;;;;8.58;85.13;101168.80;105812;1257;61255;-88
2023/10/07 01:03:31;;;;;;;5.40;2.30;;;;;;;8.59;85.33;101165.35;105964;1254;61192;-84
2023/10/07 01:08:35;;;;;;;6.40;2.50;;;;;;;8.66;85.80;101150.61;106667;1254;67180;-89
2023/10/07 01:11:07;;;;;;;5.90;2.50;;;;;;;8.71;86.02;101142.23;106632;1255;71455;-88
2023/10/07 01:13:35;;;;;;;5.70;2.30;;;;;;;8.75;86.08;101140.00;106453;1254;61096;-88
2023/10/07 01:16:07;;;;;;;4.70;2.40;;;;;;;8.79;86.88;101141.10;106438;1254;61240;-84
2023/10/07 01:18:40;;;;;;;4.60;2.10;;;;;;;8.88;87.85;101141.58;106097;1254;74589;-88
2023/10/07 01:21:11;;;;;;;6.50;2.40;;;;;;;9.01;89.05;101130.83;106061;1260;67116;-84
2023/10/07 01:23:40;;;;;;;6.50;2.40;;;;;;;9.17;89.85;101125.59;106010;1254;70458;-88
2023/10/07 01:26:22;;;;;;;6.70;2.40;;;;;;;9.30;89.97;101115.51;106295;1254;61255;-87
2023/10/07 01:28:57;;;;;;;6.20;2.40;;;;;;;9.38;89.72;101105.39;107263;1254;60011;-88
2023/10/07 01:31:29;;;;;;;5.40;2.40;;;;;;;9.43;90.29;101101.24;109232;1254;74234;-85
2023/10/07 01:34:01;;;;;;;5.90;2.40;;;;;;;9.54;90.92;101103.16;106023;1260;68364;-88
2023/10/07 01:36:30;;;;;;;4.90;2.60;;;;;;;9.70;91.65;101097.89;106302;1255;71485;-85
2023/10/07 01:39:01;;;;;;;8.60;2.70;;;;;;;9.90;91.38;101099.33;106175;1256;62380;-88
2023/10/07 01:41:30;;;;;;;3.70;2.10;;;;;;;10.04;90.33;101094.97;105918;1254;232381;-88
2023/10/07 01:46:30;;;;;;;8.40;2.70;;;;;;;10.06;88.39;101091.48;106711;1254;68360;-85
2023/10/07 01:49:17;;;;;;;5.80;2.40;;;;;;;10.01;87.50;101088.27;108359;1254;71105;-86
2023/10/07 01:51:45;;;;;;;4.20;2.20;;;;;;;9.94;86.59;101078.55;106168;1258;61369;-88
2023/10/07 01:54:13;;;;;;;4.60;2.10;;;;;;;9.86;86.24;101072.59;106445;1254;61348;-85
2023/10/07 01:56:41;;;;;;;7.00;2.50;;;;;;;9.78;85.93;101069.45;106219;1254;74635;-85
2023/10/07 02:01:49;;;;;;;6.50;3.00;;;;;;;9.60;86.24;101066.73;106140;1254;72900;-88
2023/10/07 02:04:18;;;;;;;7.70;2.50;;;;;;;9.57;87.27;101063.81;105940;1263;61113;-88
2023/10/07 02:06:51;;;;;;;9.00;2.20;;;;;;;9.60;87.38;101062.85;106240;1254;61843;-84
2023/10/07 02:10:04;;;;;;;5.00;2.30;;;;;;;9.61;86.92;101065.20;107485;1254;73421;-86
2023/10/07 02:12:16;;;;;;;4.50;2.40;;;;;;;9.58;87.71;101056.61;105975;1254;68394;-87
2023/10/07 02:14:44;;;;;;;9.10;2.30;;;;;;;9.59;87.96;101052.52;106359;1254;72722;-87
2023/10/07 02:17:14;;;;;;;5.30;2.60;;;;;;;9.63;88.37;101044.23;106187;1256;61344;-83
2023/10/07 02:19:43;;;;;;;5.40;2.00;;;;;;;9.71;89.26;101036.80;106308;1258;61165;-88
2023/10/07 02:22:21;;;;;;;7.10;2.20;;;;;;;9.84;90.44;101035.02;106227;1254;73420;-88
2023/10/07 02:25:01;;;;;;;6.10;2.40;;;;;;;10.02;91.63;101038.05;106201;1254;68358;-88
2023/10/07 02:27:38;;;;;;;8.40;2.60;;;;;;;10.24;91.77;101040.95;106065;1254;72643;-83
2023/10/07 02:30:06;;;;;;;7.90;2.90;;;;;;;10.47;91.33;101040.68;107381;1259;61315;-83
2023/10/07 02:32:34;;;;;;;5.70;2.40;;;;;;;10.64;90.67;101042.27;106323;1254;61336;-87
2023/10/07 02:35:09;;;;;;;6.00;2.00;;;;;;;10.74;90.23;101031.48;106279;1254;74795;-83
2023/10/07 02:37:38;;;;;;;4.90;2.70;;;;;;;10.87;89.77;101025.95;106424;1254;68460;-84
2023/10/07 02:40:20;;;;;;;8.10;3.10;;;;;;;10.98;89.34;101022.23;106053;1262;72660;-88
2023/10/07 02:42:50;;;;;;;7.30;2.50;;;;;;;11.10;88.36;101022.05;106114;1257;61325;-89
2023/10/07 02:47:47;;;;;;;7.70;3.20;;;;;;;11.27;87.31;101007.60;106369;1254;74752;-83
2023/10/07 02:50:17;;;;;;;8.50;3.50;;;;;;;11.32;86.82;100993.82;107041;1254;66133;-83
2023/10/07 02:52:46;;;;;;;9.80;3.00;;;;;;;11.41;86.56;100990.21;106111;1256;71117;-83
2023/10/07 02:57:57;;;;;;;7.50;3.10;;;;;;;11.58;84.82;100977.59;106279;1254;61259;-84
2023/10/07 03:00:49;;;;;;;6.70;3.20;;;;;;;11.72;83.76;100965.98;106304;1254;73866;-83
2023/10/07 03:06:52;;;;;;;10.40;3.40;;;;;;;11.83;82.40;100954.92;104062;1290;600327;-84
2023/10/07 03:09:33;;;;;;;8.70;3.00;;;;;;;11.90;81.64;100948.52;106318;1267;59602;-88
2023/10/07 03:12:04;;;;;;;5.00;2.70;;;;;;;11.94;81.17;100934.45;105444;1270;59369;-88
2023/10/07 03:14:36;;;;;;;7.50;2.40;;;;;;;11.99;80.64;100925.23;105539;1264;72203;-89
2023/10/07 03:17:16;;;;;;;8.90;2.70;;;;;;;12.01;79.96;100906.81;105480;1273;67250;-84
2023/10/07 03:19:56;;;;;;;5.70;2.70;;;;;;;12.09;79.10;100895.84;105110;1267;268379;-84
2023/10/07 03:22:28;;;;;;;5.40;2.30;;;;;;;12.13;78.30;100889.59;105431;1264;60941;-89
2023/10/07 03:25:00;;;;;;;7.40;3.10;;;;;;;12.13;78.05;100900.77;105532;1270;60378;-89
2023/10/07 03:27:28;;;;;;;6.10;2.60;;;;;;;12.15;77.65;100896.05;106612;1269;72011;-84
2023/10/07 03:30:15;;;;;;;4.80;2.00;;;;;;;12.18;77.18;100892.15;105810;1269;67259;-85
2023/10/07 03:32:56;;;;;;;4.80;2.20;;;;;;;12.21;76.70;100886.10;105832;1263;72600;-85
2023/10/07 03:35:35;;;;;;;6.60;3.00;;;;;;;12.26;76.09;100880.99;105705;1269;59709;-85
2023/10/07 03:38:08;;;;;;;6.10;2.40;;;;;;;12.28;75.80;100883.94;105659;1264;60106;-90
2023/10/07 03:40:38;;;;;;;10.20;3.00;;;;;;;12.31;75.51;100894.90;105536;1269;73177;-85
2023/10/07 03:43:08;;;;;;;8.20;2.70;;;;;;;12.35;75.08;100911.15;105590;1264;68483;-88
2023/10/07 03:45:39;;;;;;;9.80;2.80;;;;;;;12.41;74.56;100913.39;105694;1263;73171;-85
2023/10/07 03:48:22;;;;;;;5.40;2.40;;;;;;;12.46;73.86;100906.73;105581;1268;63505;-89
2023/10/07 03:51:04;;;;;;;8.60;3.00;;;;;;;12.48;73.52;100904.52;106383;1267;59554;-83
2023/10/07 03:53:33;;;;;;;9.70;3.40;;;;;;;12.51;73.21;100903.25;105815;1263;71738;-87
2023/10/07 03:56:01;;;;;;;7.30;3.00;;;;;;;12.51;72.88;100894.33;105772;1263;68430;-87
2023/10/07 03:58:32;;;;;;;10.20;3.40;;;;;;;12.55;72.41;100886.51;105776;1264;72660;-84
2023/10/07 04:01:11;;;;;;;13.50;3.50;;;;;;;12.58;71.97;100876.64;105738;1263;59674;-87
2023/10/07 04:03:39;;;;;;;9.40;3.60;;;;;;;12.57;71.71;100869.73;105485;1269;60090;-87
2023/10/07 04:06:09;;;;;;;12.40;3.60;;;;;;;12.55;71.73;100865.06;105673;1264;73036;-86
2023/10/07 04:08:39;;;;;;;9.80;3.40;;;;;;;12.54;71.92;100859.61;106149;1264;67127;-85
2023/10/07 04:11:13;;;;;;;5.70;3.00;;;;;;;12.55;71.70;100857.29;105712;1268;71449;-84
2023/10/07 04:13:43;;;;;;;9.70;3.40;;;;;;;12.55;71.71;100852.52;105644;1267;59756;-87
2023/10/07 04:16:23;;;;;;;10.90;3.10;;;;;;;12.57;71.75;100843.84;105641;1264;60487;-87
2023/10/07 04:18:53;;;;;;;12.30;3.60;;;;;;;12.60;71.52;100837.46;105412;1270;73036;-84
2023/10/07 04:21:21;;;;;;;11.50;3.70;;;;;;;12.63;71.41;100839.09;105439;1264;68730;-84
2023/10/07 04:23:48;;;;;;;11.70;3.70;;;;;;;12.68;71.30;100845.09;105475;1264;71157;-88
2023/10/07 04:26:20;;;;;;;13.80;3.10;;;;;;;12.74;71.15;100850.70;107263;1264;60879;-88
2023/10/07 04:28:53;;;;;;;10.50;3.20;;;;;;;12.78;70.88;100846.40;106323;1270;59504;-88
2023/10/07 04:31:29;;;;;;;9.90;3.80;;;;;;;12.81;71.03;100841.17;105481;1270;71903;-84
2023/10/07 04:34:02;;;;;;;12.40;3.80;;;;;;;12.83;71.13;100835.39;105451;1270;67111;-84
2023/10/07 04:36:36;;;;;;;8.90;3.40;;;;;;;12.91;71.26;100823.66;105474;1268;71396;-84
2023/10/07 04:39:18;;;;;;;8.10;3.00;;;;;;;12.99;71.18;100817.84;105546;1264;59782;-88
2023/10/07 04:41:56;;;;;;;8.90;2.80;;;;;;;13.12;71.11;100812.62;105602;1268;60437;-86
2023/10/07 04:47:29;;;;;;;9.50;3.10;;;;;;;13.35;70.77;100802.50;105763;1268;67658;-84
2023/10/07 04:50:16;;;;;;;9.40;2.80;;;;;;;13.47;70.41;100795.74;107087;1258;71392;-89
2023/10/07 04:52:50;;;;;;;10.20;3.10;;;;;;;13.61;70.02;100796.93;106345;1254;59701;-89
2023/10/07 04:55:26;;;;;;;9.50;3.40;;;;;;;13.74;69.57;100789.27;106297;1254;59700;-90
2023/10/07 05:03:08;;;;;;;9.00;3.30;;;;;;;14.16;68.70;100778.73;106557;1254;71402;-85
2023/10/07 05:05:36;;;;;;;6.70;2.90;;;;;;;14.31;68.03;100773.20;106364;1251;60069;-84
2023/10/07 05:08:22;;;;;;;15.40;3.50;;;;;;;14.48;67.73;100762.84;106555;1254;59938;-84
2023/10/07 05:10:53;;;;;;;7.40;2.90;;;;;;;14.64;67.02;100752.16;106267;1257;73037;-86
2023/10/07 05:13:21;;;;;;;9.00;3.40;;;;;;;14.78;66.55;100747.55;106326;1254;68495;-89
2023/10/07 05:15:49;;;;;;;7.40;3.10;;;;;;;14.92;65.77;100741.09;106607;1256;73060;-89
2023/10/07 05:18:17;;;;;;;8.80;2.50;;;;;;;15.03;65.20;100733.26;107371;1257;59733;-88
2023/10/07 05:20:48;;;;;;;10.10;3.30;;;;;;;15.12;64.55;100717.67;106379;1254;59848;-90
2023/10/07 05:23:17;;;;;;;6.10;2.70;;;;;;;15.22;64.18;100710.89;106433;1252;73103;-89
2023/10/07 05:25:48;;;;;;;10.70;3.60;;;;;;;15.34;63.92;100707.48;106524;1257;67120;-88
2023/10/07 05:28:20;;;;;;;8.00;2.90;;;;;;;15.45;63.64;100697.60;106335;1253;72993;-86
2023/10/07 05:30:52;;;;;;;7.60;3.10;;;;;;;15.58;63.41;100698.11;107272;1254;59752;-89
2023/10/07 05:33:25;;;;;;;7.50;3.10;;;;;;;15.70;63.11;100695.63;106272;1255;59442;-90
2023/10/07 05:36:14;;;;;;;11.80;3.60;;;;;;;15.82;62.83;100689.48;106474;1254;71817;-90
2023/10/07 05:38:44;;;;;;;9.00;3.00;;;;;;;15.96;62.39;100683.02;106444;1254;67089;-90
2023/10/07 05:41:14;;;;;;;8.30;3.60;;;;;;;16.10;62.00;100680.49;106320;1258;72070;-90
2023/10/07 05:43:51;;;;;;;9.00;3.30;;;;;;;16.28;60.95;100681.39;106894;1254;60344;-90
2023/10/07 05:46:23;;;;;;;11.20;4.00;;;;;;;16.43;60.14;100683.59;106465;1252;59822;-87
2023/10/07 05:48:51;;;;;;;8.30;3.60;;;;;;;16.51;59.68;100675.20;106487;1257;73028;-89
2023/10/07 05:51:19;;;;;;;12.60;3.40;;;;;;;16.61;59.54;100669.56;106509;1254;67261;-88
2023/10/07 05:53:48;;;;;;;5.00;3.10;;;;;;;16.70;58.63;100659.00;106432;1255;72897;-88
2023/10/07 05:56:16;;;;;;;8.70;3.30;;;;;;;16.81;58.26;100656.00;106893;1254;61116;-86
2023/10/07 05:58:50;;;;;;;5.90;3.40;;;;;;;16.90;57.35;100654.33;106347;1258;59563;-91
2023/10/07 06:01:19;;;;;;;7.20;3.30;;;;;;;16.95;56.94;100648.55;106458;1256;72763;-86
2023/10/07 06:03:52;;;;;;;8.80;3.20;;;;;;;17.02;56.62;100651.02;106415;1257;67158;-89
2023/10/07 06:06:20;;;;;;;10.70;4.00;;;;;;;17.06;56.54;100650.84;106283;1259;72437;-88
2023/10/07 06:08:48;;;;;;;9.40;3.10;;;;;;;17.10;56.55;100649.20;107591;1254;59696;-88
2023/10/07 06:11:16;;;;;;;9.30;3.70;;;;;;;17.18;56.17;100646.77;106442;1254;59398;-86
2023/10/07 06:13:44;;;;;;;9.30;3.60;;;;;;;17.26;55.65;100647.32;106373;1253;71758;-86
2023/10/07 06:16:13;;;;;;;9.60;3.90;;;;;;;17.34;55.47;100638.76;106471;1256;67568;-88
2023/10/07 06:18:42;;;;;;;12.90;3.40;;;;;;;17.46;55.10;100634.64;106332;1256;72664;-89
2023/10/07 06:24:14;;;;;;;6.60;3.30;;;;;;;17.60;54.73;100629.30;106159;1256;60040;-89
2023/10/07 06:26:43;;;;;;;4.80;2.60;;;;;;;17.64;54.66;100625.48;106273;1254;71947;-90
2023/10/07 06:29:18;;;;;;;9.00;3.60;;;;;;;17.75;54.49;100620.85;106394;1253;68410;-91
2023/10/07 06:32:13;;;;;;;9.90;3.50;;;;;;;17.80;54.60;100618.63;106673;1253;72670;-91
2023/10/07 06:34:42;;;;;;;10.60;3.30;;;;;;;17.87;54.62;100615.35;106747;1256;60051;-85
2023/10/07 06:37:25;;;;;;;7.60;3.60;;;;;;;17.94;54.62;100610.13;107028;1253;59567;-85
2023/10/07 06:39:53;;;;;;;7.30;3.50;;;;;;;18.04;54.29;100616.70;106333;1254;73123;-85
2023/10/07 06:42:24;;;;;;;9.90;2.90;;;;;;;18.14;53.71;100614.19;106499;1257;68413;-84
2023/10/07 06:44:55;;;;;;;12.70;3.40;;;;;;;18.22;53.37;100606.33;106476;1254;71739;-85
2023/10/07 06:47:29;;;;;;;8.70;3.40;;;;;;;18.33;52.70;100604.85;106308;1253;60197;-86
2023/10/07 06:50:03;;;;;;;9.60;3.00;;;;;;;18.52;52.14;100596.60;106661;1254;59666;-86
2023/10/07 06:52:32;;;;;;;6.00;3.00;;;;;;;18.69;51.62;100577.68;106408;1253;71806;-85
2023/10/07 06:55:02;;;;;;;7.40;3.30;;;;;;;18.87;50.96;100575.08;106472;1254;68704;-89
2023/10/07 06:57:41;;;;;;;5.40;3.10;;;;;;;19.02;50.51;100576.56;106467;1253;73209;-86
2023/10/07 07:00:16;;;;;;;10.20;3.40;;;;;;;19.15;49.94;100571.06;106650;1253;60064;-89
2023/10/07 07:02:53;;;;;;;8.20;2.70;;;;;;;19.32;49.19;100578.67;107197;1251;59565;-90
2023/10/07 07:05:23;;;;;;;6.80;2.80;;;;;;;19.49;48.60;100569.61;106177;1253;75408;-89
2023/10/07 07:07:53;;;;;;;8.20;3.20;;;;;;;19.71;47.67;100562.77;106386;1255;67414;-89
2023/10/07 07:10:28;;;;;;;6.80;2.60;;;;;;;19.87;46.63;100561.13;106343;1254;71142;-87
2023/10/07 07:13:05;;;;;;;4.70;2.50;;;;;;;19.93;46.26;100554.19;106691;1253;59611;-86
2023/10/07 07:15:36;;;;;;;6.40;3.10;;;;;;;19.99;45.62;100537.55;106376;1253;59245;-86
2023/10/07 07:18:14;;;;;;;10.60;3.20;;;;;;;20.08;45.62;100534.48;106375;1253;73073;-86
2023/10/07 07:20:48;;;;;;;8.70;3.10;;;;;;;20.14;45.77;100531.83;106548;1251;67643;-86
2023/10/07 07:23:17;;;;;;;8.30;2.50;;;;;;;20.24;45.66;100524.80;106438;1253;71450;-86
2023/10/07 07:25:50;;;;;;;11.00;2.50;;;;;;;20.31;44.56;100511.88;106267;1257;60482;-85
2023/10/07 07:28:19;;;;;;;6.80;2.40;;;;;;;20.44;44.20;100516.68;107110;1254;60444;-86
2023/10/07 07:30:47;;;;;;;8.00;2.30;;;;;;;20.57;43.58;100515.74;106458;1253;72584;-87
2023/10/07 07:33:15;;;;;;;27.60;5.20;;;;;;;20.69;43.01;100511.68;106419;1253;68325;-88
2023/10/07 07:35:43;;;;;;;9.60;3.20;;;;;;;20.81;42.59;100501.27;106499;1253;72601;-85
2023/10/07 07:38:26;;;;;;;6.80;2.70;;;;;;;20.94;42.21;100494.48;106341;1253;60547;-85
2023/10/07 07:41:05;;;;;;;6.10;2.60;;;;;;;21.09;41.84;100491.78;106955;1252;60399;-86
2023/10/07 07:43:38;;;;;;;13.30;3.00;;;;;;;21.21;41.35;100479.02;106407;1251;72868;-85
2023/10/07 07:49:06;;;;;;;6.50;2.50;;;;;;;21.34;40.69;100468.63;106363;1253;72671;-85
2023/10/07 07:51:39;;;;;;;8.50;2.60;;;;;;;21.41;40.58;100452.73;106653;1253;60461;-87
2023/10/07 07:54:08;;;;;;;8.20;2.50;;;;;;;21.41;40.32;100446.26;107166;1253;60431;-87
2023/10/07 07:56:55;;;;;;;7.30;3.00;;;;;;;21.46;40.21;100443.85;106554;1252;74934;-86
2023/10/07 07:59:24;;;;;;;11.40;2.40;;;;;;;21.54;40.13;100448.10;106439;1253;68441;-84
2023/10/07 08:02:01;;;;;;;19.90;3.30;;;;;;;21.65;39.70;100444.84;106624;1255;73191;-85
2023/10/07 08:04:39;;;;;;;9.00;2.60;;;;;;;21.70;39.82;100444.99;107108;1253;60473;-87
2023/10/07 08:07:17;;;;;;;6.40;2.80;;;;;;;21.72;40.24;100443.69;106590;1253;59030;-87
2023/10/07 08:09:46;;;;;;;12.90;2.80;;;;;;;21.65;41.82;100444.61;106576;1251;72569;-87
2023/10/07 08:12:19;;;;;;;10.90;2.40;;;;;;;21.55;42.90;100433.67;106593;1251;68893;-87
2023/10/07 08:14:50;;;;;;;5.70;2.60;;;;;;;21.34;42.74;100431.48;106447;1252;72695;-85
2023/10/07 08:17:25;;;;;;;6.50;2.50;;;;;;;21.19;43.09;100433.73;106434;1253;60384;-85
2023/10/07 08:19:54;;;;;;;3.70;2.40;;;;;;;21.09;43.51;100433.45;106605;1251;60448;-86
2023/10/07 08:22:23;;;;;;;8.20;2.60;;;;;;;21.01;44.03;100443.84;106960;1254;73853;-85
2023/10/07 08:24:52;;;;;;;4.60;2.30;;;;;;;20.93;45.32;100438.36;106613;1251;67334;-84
2023/10/07 08:30:09;;;;;;;7.20;2.40;;;;;;;20.51;49.32;100443.60;106714;1257;61652;-87
2023/10/07 08:32:43;;;;;;;8.90;2.80;;;;;;;20.25;52.10;100444.67;106495;1253;60358;-85
2023/10/07 08:35:17;;;;;;;7.70;2.60;;;;;;;20.02;55.20;100444.38;106570;1251;73821;-85
2023/10/07 08:37:46;;;;;;;6.50;2.90;;;;;;;19.80;58.57;100442.73;107356;1251;67443;-86
2023/10/07 08:40:28;;;;;;;6.60;2.50;;;;;;;19.62;61.54;100445.80;108476;1251;70813;-89
2023/10/07 08:42:58;;;;;;;6.90;3.10;;;;;;;19.45;65.14;100441.45;108588;1251;60514;-83
2023/10/07 08:45:30;;;;;;;7.80;3.10;;;;;;;19.28;68.45;100435.37;106514;1258;61111;-89
2023/10/07 08:48:08;;;;;;;6.20;2.50;;;;;;;19.13;71.52;100436.46;106648;1257;73800;-85
2023/10/07 08:50:43;;;;;;;8.70;3.10;;;;;;;18.99;74.79;100429.75;106442;1257;68500;-82
2023/10/07 08:53:14;;;;;;;6.90;3.00;;;;;;;18.83;78.30;100425.20;106752;1257;71388;-90
2023/10/07 08:55:43;;;;;;;8.50;3.10;;;;;;;18.75;81.15;100424.59;106474;1258;60496;-88
2023/10/07 08:58:11;;;;;;;8.80;3.10;;;;;;;18.72;83.53;100417.83;106635;1251;60498;-87
2023/10/07 09:00:41;;;;;;;6.20;3.30;;;;;;;18.72;85.21;100413.83;106730;1251;73778;-87
2023/10/07 09:03:15;;;;;;;11.40;3.50;;;;;;;18.75;86.83;100412.72;106490;1258;67121;-87
2023/10/07 09:05:44;;;;;;;9.00;2.80;;;;;;;18.77;88.54;100409.94;106893;1253;71420;-85
2023/10/07 09:08:12;;;;;;;7.30;3.50;;;;;;;18.80;89.98;100407.91;106689;1253;61723;-86
2023/10/07 09:10:45;;;;;;;7.50;3.70;;;;;;;18.81;91.43;100399.64;106791;1251;60539;-85
2023/10/07 09:13:19;;;;;;;7.50;2.90;;;;;;;18.86;93.06;100390.05;106478;1251;74414;-87
2023/10/07 09:15:53;;;;;;;8.80;3.20;;;;;;;18.91;94.20;100381.60;106472;1251;68331;-88
2023/10/07 09:18:28;;;;;;;8.20;3.40;;;;;;;19.02;95.02;100371.39;106705;1256;72802;-88
2023/10/07 09:21:06;;;;;;;7.70;3.60;;;;;;;19.11;95.39;100351.48;106715;1253;60397;-86
2023/10/07 09:23:43;;;;;;;7.80;3.30;;;;;;;19.22;95.40;100335.02;106555;1257;60527;-89
2023/10/07 09:28:58;;;;;;;9.30;3.10;;;;;;;19.48;93.44;100303.81;107230;1251;67678;-87
2023/10/07 09:31:35;;;;;;;8.60;3.20;;;;;;;19.61;92.11;100304.27;106395;1251;72664;-85
2023/10/07 09:34:09;;;;;;;8.10;3.30;;;;;;;19.72;89.66;100307.42;106816;1251;61645;-85
2023/10/07 09:36:40;;;;;;;7.50;3.20;;;;;;;19.84;88.00;100313.91;106702;1253;60547;-85
2023/10/07 09:39:33;;;;;;;7.00;3.40;;;;;;;19.94;84.96;100318.45;106524;1256;73830;-86
2023/10/07 09:42:25;;;;;;;9.40;3.20;;;;;;;20.02;82.76;100307.61;106895;1251;67232;-85
2023/10/07 09:45:40;;;;;;;6.20;3.00;;;;;;;20.11;80.75;100287.48;106505;1251;72667;-84
2023/10/07 09:47:48;;;;;;;9.10;3.00;;;;;;;20.19;79.12;100268.36;106452;1253;60543;-84
2023/10/07 09:50:25;;;;;;;8.70;2.90;;;;;;;20.24;78.15;100256.63;106435;1256;60383;-86
2023/10/07 09:53:30;;;;;;;8.20;2.60;;;;;;;20.29;77.62;100248.15;106432;1251;73940;-83
2023/10/07 09:56:21;;;;;;;5.40;2.90;;;;;;;20.31;75.95;100231.89;106738;1250;67413;-88
2023/10/07 09:59:13;;;;;;;6.00;2.50;;;;;;;20.34;74.75;100231.49;106713;1251;72107;-86
2023/10/07 10:01:54;;;;;;;6.20;2.40;;;;;;;20.35;74.81;100230.17;106341;1256;61725;-86
2023/10/07 10:04:51;;;;;;;9.60;2.50;;;;;;;20.34;74.91;100216.27;106617;1251;60448;-88
2023/10/07 10:07:42;;;;;;;5.20;2.30;;;;;;;20.36;75.18;100202.21;108317;1251;72541;-84
2023/10/07 10:10:13;;;;;;;6.60;2.90;;;;;;;20.33;74.36;100200.16;108103;1251;67202;-87
2023/10/07 10:17:53;;;;;;;6.70;2.80;;;;;;;20.35;76.27;100166.73;106451;1257;60333;-85
2023/10/07 10:20:22;;;;;;;7.30;3.00;;;;;;;20.38;76.87;100151.30;106931;1260;73779;-84
2023/10/07 10:23:00;;;;;;;12.80;2.80;;;;;;;20.41;77.89;100139.27;107028;1253;67147;-84
2023/10/07 10:25:37;;;;;;;4.60;2.40;;;;;;;20.44;77.76;100126.66;106639;1251;71399;-87
2023/10/07 10:28:07;;;;;;;8.50;3.10;;;;;;;20.54;77.90;100131.78;106244;1253;59556;-88
2023/10/07 10:30:46;;;;;;;8.40;3.00;;;;;;;20.57;78.58;100126.58;106547;1257;60485;-85
2023/10/07 10:33:20;;;;;;;4.70;2.30;;;;;;;20.63;77.98;100124.52;106588;1251;73851;-83
2023/10/07 10:35:49;;;;;;;6.30;3.10;;;;;;;20.65;77.51;100116.71;106653;1251;68414;-84
2023/10/07 10:38:20;;;;;;;6.50;2.90;;;;;;;20.68;77.91;100111.15;106492;1255;72644;-85
2023/10/07 10:40:47;;;;;;;6.80;2.90;;;;;;;20.68;78.32;100098.71;106480;1253;60565;-86
2023/10/07 10:43:23;;;;;;;12.60;4.70;;;;;;;20.75;76.70;100091.73;106518;1251;60440;-85
2023/10/07 10:46:04;;;;;;;12.80;2.80;;;;;;;20.78;74.70;100079.46;106903;1257;72695;-85
2023/10/07 10:48:38;;;;;;;7.40;2.50;;;;;;;20.86;73.00;100073.63;106519;1257;68809;-86
2023/10/07 10:51:07;;;;;;;6.70;2.40;;;;;;;20.95;70.10;100074.80;106522;1256;73200;-86
2023/10/07 10:53:35;;;;;;;6.90;2.40;;;;;;;21.01;66.84;100065.45;106523;1257;60371;-87
2023/10/07 10:56:03;;;;;;;6.40;2.60;;;;;;;21.14;63.93;100052.95;106601;1257;60473;-86
2023/10/07 10:58:36;;;;;;;8.60;2.50;;;;;;;21.25;62.61;100048.55;106563;1254;72632;-87
2023/10/07 11:01:07;;;;;;;5.00;2.90;;;;;;;21.38;61.12;100041.24;106608;1251;67108;-86
2023/10/07 11:03:36;;;;;;;7.50;3.00;;;;;;;21.50;58.88;100032.64;106464;1254;71818;-86
2023/10/07 11:06:09;;;;;;;6.40;2.70;;;;;;;21.67;56.31;100027.59;107669;1256;59366;-88
2023/10/07 11:08:37;;;;;;;6.10;2.40;;;;;;;21.82;53.94;100024.48;107734;1253;60422;-86
2023/10/07 11:11:10;;;;;;;11.80;3.00;;;;;;;21.99;52.29;100020.78;106621;1251;72590;-86
2023/10/07 11:13:43;;;;;;;7.80;3.00;;;;;;;22.11;50.86;100010.50;106484;1251;68406;-86
2023/10/07 11:16:12;;;;;;;7.00;2.90;;;;;;;22.19;50.66;99986.92;106505;1257;72710;-85
2023/10/07 11:18:44;;;;;;;8.50;3.20;;;;;;;22.33;49.79;99985.59;106612;1251;60330;-86
2023/10/07 11:21:21;;;;;;;9.50;3.00;;;;;;;22.52;48.81;99981.06;106405;1251;60615;-85
2023/10/07 11:23:52;;;;;;;11.20;2.70;;;;;;;22.68;47.27;99969.58;106363;1252;73832;-85
2023/10/07 11:26:20;;;;;;;8.20;2.90;;;;;;;22.86;46.86;99967.14;106471;1251;68413;-88
2023/10/07 11:28:48;;;;;;;10.90;2.90;;;;;;;22.96;45.30;99967.55;106511;1257;72764;-85
2023/10/07 11:31:28;;;;;;;8.20;2.50;;;;;;;23.03;44.38;99960.91;106563;1253;60528;-85
2023/10/07 11:33:57;;;;;;;9.20;2.80;;;;;;;23.12;43.36;99949.98;107061;1251;60522;-86
2023/10/07 11:36:25;;;;;;;4.30;2.30;;;;;;;23.26;42.42;99940.92;106626;1251;73869;-89
2023/10/07 11:38:53;;;;;;;4.90;2.60;;;;;;;23.41;41.75;99930.20;106614;1250;68444;-86
2023/10/07 11:41:22;;;;;;;7.70;3.00;;;;;;;23.51;40.71;99928.98;106465;1256;71873;-85
2023/10/07 11:43:52;;;;;;;7.90;2.50;;;;;;;23.60;40.45;99920.01;106998;1253;60441;-85
2023/10/07 11:46:20;;;;;;;7.80;2.40;;;;;;;23.66;39.91;99913.77;106534;1251;60542;-85
2023/10/07 11:48:48;;;;;;;6.50;2.60;;;;;;;23.69;39.37;99914.05;106542;1252;73826;-86
2023/10/07 11:51:16;;;;;;;7.90;2.30;;;;;;;23.71;38.84;99910.81;106363;1251;67267;-86
2023/10/07 11:53:45;;;;;;;11.20;2.50;;;;;;;23.72;38.15;99911.70;106346;1253;72750;-85
2023/10/07 11:56:14;;;;;;;6.40;2.70;;;;;;;23.80;37.90;99911.25;107372;1251;60431;-87
2023/10/07 11:58:45;;;;;;;6.10;2.80;;;;;;;23.84;37.54;99905.55;106350;1251;60547;-86
2023/10/07 12:01:20;;;;;;;12.40;2.80;;;;;;;23.87;37.51;99902.89;106593;1257;72990;-87
2023/10/07 12:03:48;;;;;;;5.70;2.50;;;;;;;23.89;37.14;99899.31;106730;1251;68937;-85
2023/10/07 12:06:17;;;;;;;5.60;2.70;;;;;;;23.90;36.81;99899.40;106509;1253;71419;-87
2023/10/07 12:08:45;;;;;;;7.10;2.60;;;;;;;23.92;36.17;99893.27;106506;1251;60514;-86
2023/10/07 12:11:13;;;;;;;8.60;2.50;;;;;;;23.97;35.91;99888.16;107128;1251;60536;-86
2023/10/07 12:13:40;;;;;;;8.90;3.00;;;;;;;24.03;36.18;99884.54;106470;1251;73842;-87
2023/10/07 12:16:09;;;;;;;7.40;2.60;;;;;;;24.06;35.80;99873.88;106745;1251;68692;-88
2023/10/07 12:18:37;;;;;;;7.00;2.70;;;;;;;24.14;35.41;99871.55;106468;1254;73086;-87
2023/10/07 12:21:12;;;;;;;10.00;2.80;;;;;;;24.19;34.98;99856.61;106467;1251;61436;-88
2023/10/07 12:23:44;;;;;;;7.70;2.50;;;;;;;24.33;34.90;99843.23;107160;1251;60331;-87
2023/10/07 12:26:12;;;;;;;5.40;2.80;;;;;;;24.41;34.49;99859.83;106352;1253;74110;-87
2023/10/07 12:28:44;;;;;;;6.20;2.80;;;;;;;24.57;34.40;99857.88;106697;1251;68756;-87
2023/10/07 12:31:12;;;;;;;7.10;2.80;;;;;;;24.60;34.20;99857.50;106617;1251;72391;-87